createdAt,value
2023-05-06T00:00:44.218Z,7.17
2023-05-06T00:03:12.025Z,7.60
2023-05-06T00:05:39.434Z,7.73
2023-05-06T00:08:06.732Z,7.40
2023-05-06T00:10:34.438Z,8.67
2023-05-06T00:13:01.765Z,8.00
2023-05-06T00:15:31.505Z,8.80
2023-05-06T00:18:01.270Z,8.70
2023-05-06T00:20:29.069Z,8.73
2023-05-06T00:22:56.350Z,7.47
2023-05-06T00:25:24.025Z,8.73
2023-05-06T00:27:51.398Z,8.60
2023-05-06T00:30:19.737Z,9.07
2023-05-06T00:32:47.431Z,8.73
2023-05-06T00:35:15.159Z,8.23
2023-05-06T00:37:45.980Z,9.10
2023-05-06T00:40:14.533Z,7.93
2023-05-06T00:42:41.948Z,9.07
2023-05-06T00:45:10.057Z,9.50
2023-05-06T00:47:37.925Z,9.52
2023-05-06T00:50:05.775Z,11.13
2023-05-06T00:52:34.450Z,8.85
2023-05-06T00:55:02.280Z,8.53
2023-05-06T00:57:30.016Z,8.33
2023-05-06T00:59:57.409Z,8.47
2023-05-06T01:02:33.271Z,8.33
2023-05-06T01:05:08.674Z,8.40
2023-05-06T01:07:50.932Z,7.97
2023-05-06T01:10:36.080Z,8.93
2023-05-06T01:13:16.554Z,8.70
2023-05-06T01:15:52.869Z,8.07
2023-05-06T01:18:22.917Z,8.80
2023-05-06T01:20:52.697Z,7.50
2023-05-06T01:23:21.327Z,9.23
2023-05-06T01:25:48.800Z,8.90
2023-05-06T01:28:17.044Z,7.45
2023-05-06T01:31:00.029Z,9.67
2023-05-06T01:34:02.966Z,8.70
2023-05-06T01:36:54.091Z,7.30
2023-05-06T01:39:25.965Z,7.10
2023-05-06T01:41:57.541Z,7.80
2023-05-06T01:44:28.234Z,7.70
2023-05-06T01:46:56.753Z,8.60
2023-05-06T01:49:26.624Z,7.60
2023-05-06T01:51:54.273Z,8.87
2023-05-06T01:54:22.171Z,9.20
2023-05-06T01:56:49.528Z,8.83
2023-05-06T01:59:16.877Z,8.70
2023-05-06T02:01:44.595Z,7.90
2023-05-06T02:04:12.293Z,8.30
2023-05-06T02:06:39.989Z,8.33
2023-05-06T02:09:07.314Z,9.10
2023-05-06T02:11:38.279Z,8.83
2023-05-06T02:14:06.377Z,7.87
2023-05-06T02:16:33.962Z,7.43
2023-05-06T02:19:01.610Z,6.67
2023-05-06T02:21:29.044Z,10.73
2023-05-06T02:23:56.646Z,11.10
2023-05-06T02:26:23.898Z,9.43
2023-05-06T02:28:51.308Z,9.93
2023-05-06T02:31:18.971Z,10.67
2023-05-06T02:33:46.333Z,9.93
2023-05-06T02:36:13.693Z,11.00
2023-05-06T02:38:41.505Z,10.57
2023-05-06T02:41:08.842Z,10.10
2023-05-06T02:43:36.396Z,11.67
2023-05-06T02:46:05.301Z,9.70
2023-05-06T02:48:32.707Z,10.23
2023-05-06T02:51:00.270Z,9.43
2023-05-06T02:53:28.102Z,9.90
2023-05-06T02:55:55.437Z,11.40
2023-05-06T02:58:22.704Z,11.40
2023-05-06T03:00:50.945Z,12.17
2023-05-06T03:03:18.330Z,12.20
2023-05-06T03:05:45.911Z,11.07
2023-05-06T03:08:13.698Z,9.67
2023-05-06T03:10:41.446Z,9.70
2023-05-06T03:13:09.081Z,8.63
2023-05-06T03:15:37.323Z,8.90
2023-05-06T03:18:04.751Z,9.27
2023-05-06T03:20:32.421Z,8.30
2023-05-06T03:23:00.468Z,8.30
2023-05-06T03:25:27.872Z,7.60
2023-05-06T03:27:55.469Z,8.97
2023-05-06T03:30:23.406Z,7.80
2023-05-06T03:32:51.214Z,7.53
2023-05-06T03:35:19.090Z,8.20
2023-05-06T03:37:48.772Z,8.50
2023-05-06T03:40:16.597Z,8.63
2023-05-06T03:42:45.165Z,10.77
2023-05-06T03:45:13.490Z,10.47
2023-05-06T03:47:41.479Z,10.17
2023-05-06T03:50:10.004Z,13.73
2023-05-06T03:52:38.446Z,12.93
2023-05-06T03:55:07.347Z,11.80
2023-05-06T03:57:35.839Z,11.57
2023-05-06T04:00:04.479Z,8.90
2023-05-06T04:02:33.083Z,10.10
2023-05-06T04:05:00.687Z,10.30
2023-05-06T04:07:28.885Z,10.50
2023-05-06T04:09:56.219Z,9.10
2023-05-06T04:12:24.768Z,9.60
2023-05-06T04:14:52.798Z,6.37
2023-05-06T04:17:20.722Z,8.37
2023-05-06T04:19:49.712Z,17.52
2023-05-06T04:22:17.866Z,10.70
2023-05-06T04:24:45.950Z,13.03
2023-05-06T04:27:13.803Z,8.32
2023-05-06T04:29:41.710Z,7.27
2023-05-06T04:32:10.484Z,7.83
2023-05-06T04:34:38.676Z,8.57
2023-05-06T04:37:07.212Z,8.67
2023-05-06T04:39:37.278Z,6.93
2023-05-06T04:42:06.641Z,7.10
2023-05-06T04:44:34.523Z,7.93
2023-05-06T04:47:03.043Z,6.93
2023-05-06T04:49:30.907Z,6.53
2023-05-06T04:54:26.601Z,8.30
2023-05-06T04:56:54.485Z,7.60
2023-05-06T04:59:23.419Z,7.85
2023-05-06T05:01:51.647Z,14.32
2023-05-06T05:04:19.820Z,9.17
2023-05-06T05:06:48.845Z,8.10
2023-05-06T05:09:17.274Z,7.33
2023-05-06T05:11:45.339Z,9.07
2023-05-06T05:14:12.801Z,7.50
2023-05-06T05:16:40.706Z,6.87
2023-05-06T05:19:09.686Z,6.57
2023-05-06T05:21:37.172Z,6.67
2023-05-06T05:24:05.965Z,7.40
2023-05-06T05:26:35.462Z,6.72
2023-05-06T05:29:03.242Z,6.20
2023-05-06T05:31:32.687Z,6.30
2023-05-06T05:34:00.571Z,5.50
2023-05-06T05:36:28.237Z,8.13
2023-05-06T05:38:55.930Z,6.60
2023-05-06T05:41:26.097Z,6.97
2023-05-06T05:43:54.113Z,7.83
2023-05-06T05:46:22.405Z,6.30
2023-05-06T05:48:50.763Z,7.90
2023-05-06T05:51:18.296Z,7.20
2023-05-06T05:53:46.478Z,6.50
2023-05-06T05:56:14.471Z,6.47
2023-05-06T05:58:42.752Z,6.93
2023-05-06T06:01:11.100Z,6.72
2023-05-06T06:03:39.894Z,6.12
2023-05-06T06:06:08.034Z,6.67
2023-05-06T06:11:06.027Z,6.17
2023-05-06T06:13:35.981Z,6.63
2023-05-06T06:16:04.317Z,6.20
2023-05-06T06:18:34.018Z,6.20
2023-05-06T06:21:01.699Z,5.87
2023-05-06T06:23:31.221Z,6.60
2023-05-06T06:25:59.056Z,6.80
2023-05-06T06:28:26.392Z,10.57
2023-05-06T06:30:54.406Z,10.43
2023-05-06T06:33:21.816Z,11.40
2023-05-06T06:35:49.244Z,11.00
2023-05-06T06:38:16.976Z,11.13
2023-05-06T06:40:44.412Z,12.67
2023-05-06T06:43:11.918Z,11.07
2023-05-06T06:45:42.421Z,11.37
2023-05-06T06:48:10.240Z,9.70
2023-05-06T06:50:37.878Z,11.80
2023-05-06T06:53:06.804Z,9.93
2023-05-06T06:55:34.157Z,11.20
2023-05-06T06:58:01.487Z,11.17
2023-05-06T07:00:29.619Z,8.93
2023-05-06T07:02:57.003Z,7.93
2023-05-06T07:05:24.650Z,7.27
2023-05-06T07:07:53.233Z,7.78
2023-05-06T07:10:20.877Z,6.60
2023-05-06T07:12:48.239Z,5.70
2023-05-06T07:15:16.129Z,6.57
2023-05-06T07:17:44.319Z,6.57
2023-05-06T07:20:12.539Z,5.57
2023-05-06T07:22:41.555Z,5.72
2023-05-06T07:25:09.466Z,5.22
2023-05-06T07:27:37.237Z,4.82
2023-05-06T07:30:05.528Z,5.07
2023-05-06T07:32:33.105Z,5.50
2023-05-06T07:35:00.624Z,5.47
2023-05-06T07:37:28.793Z,5.18
2023-05-06T07:39:57.791Z,6.30
2023-05-06T07:42:25.212Z,5.75
2023-05-06T07:44:54.320Z,5.33
2023-05-06T07:47:30.574Z,6.13
2023-05-06T07:49:59.044Z,6.80
2023-05-06T07:52:27.843Z,5.80
2023-05-06T07:54:55.170Z,6.70
2023-05-06T07:57:23.276Z,6.47
2023-05-06T07:59:52.340Z,6.60
2023-05-06T08:02:19.824Z,6.37
2023-05-06T08:04:49.483Z,5.30
2023-05-06T08:07:18.319Z,8.90
2023-05-06T08:09:46.597Z,6.00
2023-05-06T08:12:16.185Z,6.45
2023-05-06T08:14:43.777Z,5.10
2023-05-06T08:17:11.325Z,6.33
2023-05-06T08:19:39.114Z,5.20
2023-05-06T08:22:06.564Z,6.20
2023-05-06T08:24:33.872Z,4.93
2023-05-06T08:27:02.438Z,6.30
2023-05-06T08:29:29.992Z,6.32
2023-05-06T08:31:57.559Z,7.23
2023-05-06T08:34:25.372Z,6.23
2023-05-06T08:36:53.008Z,5.10
2023-05-06T08:39:20.402Z,5.60
2023-05-06T08:41:51.431Z,5.07
2023-05-06T08:44:23.517Z,6.17
2023-05-06T08:46:51.732Z,6.30
2023-05-06T08:49:20.306Z,5.00
2023-05-06T08:51:52.008Z,5.50
2023-05-06T08:54:20.169Z,5.07
2023-05-06T08:56:53.546Z,5.12
2023-05-06T08:59:31.128Z,4.95
2023-05-06T09:02:04.021Z,5.35
2023-05-06T09:04:31.955Z,4.75
2023-05-06T09:06:59.558Z,5.05
2023-05-06T09:09:26.911Z,5.00
2023-05-06T09:11:57.480Z,4.55
2023-05-06T09:14:25.127Z,5.18
2023-05-06T09:16:53.387Z,4.75
2023-05-06T09:19:23.254Z,4.80
2023-05-06T09:21:51.668Z,4.97
2023-05-06T09:24:20.650Z,4.50
2023-05-06T09:26:48.592Z,4.85
2023-05-06T09:29:16.302Z,5.05
2023-05-06T09:31:48.228Z,5.43
2023-05-06T09:34:17.602Z,4.65
2023-05-06T09:39:12.579Z,5.93
2023-05-06T09:41:40.340Z,4.87
2023-05-06T09:44:07.767Z,4.82
2023-05-06T09:46:35.289Z,6.32
2023-05-06T09:49:02.992Z,7.40
2023-05-06T09:51:31.311Z,5.75
2023-05-06T09:54:00.983Z,5.22
2023-05-06T09:56:30.977Z,5.20
2023-05-06T09:59:01.576Z,7.45
2023-05-06T10:01:36.664Z,5.65
2023-05-06T10:04:10.133Z,5.60
2023-05-06T10:06:41.382Z,6.30
2023-05-06T10:09:10.697Z,6.15
2023-05-06T10:11:38.933Z,5.37
2023-05-06T10:14:07.254Z,6.57
2023-05-06T10:16:36.786Z,5.70
2023-05-06T10:19:08.237Z,5.85
2023-05-06T10:21:41.473Z,5.20
2023-05-06T10:24:13.620Z,5.80
2023-05-06T10:26:42.879Z,5.03
2023-05-06T10:29:11.521Z,5.22
2023-05-06T10:31:45.212Z,4.55
2023-05-06T10:34:13.821Z,4.37
2023-05-06T10:36:43.504Z,4.22
2023-05-06T10:39:14.405Z,4.72
2023-05-06T10:41:43.797Z,4.75
2023-05-06T10:44:13.009Z,4.45
2023-05-06T10:47:00.902Z,4.60
2023-05-06T10:49:29.356Z,4.87
2023-05-06T10:52:17.142Z,4.85
2023-05-06T10:57:18.563Z,4.37
2023-05-06T10:59:47.435Z,4.25
2023-05-06T11:02:17.108Z,4.72
2023-05-06T11:04:59.825Z,4.00
2023-05-06T11:07:27.780Z,4.78
2023-05-06T11:10:07.027Z,3.78
2023-05-06T11:12:52.857Z,4.07
2023-05-06T11:15:36.376Z,4.90
2023-05-06T11:18:29.495Z,4.80
2023-05-06T11:21:03.152Z,3.80
2023-05-06T11:24:03.589Z,4.18
2023-05-06T11:26:33.368Z,3.80
2023-05-06T11:29:04.286Z,3.78
2023-05-06T11:31:40.141Z,3.50
2023-05-06T11:34:09.825Z,3.92
2023-05-06T11:36:46.670Z,4.03
2023-05-06T11:39:14.754Z,4.45
2023-05-06T11:41:42.226Z,4.03
2023-05-06T11:44:11.552Z,4.25
2023-05-06T11:46:39.482Z,3.60
2023-05-06T11:49:06.951Z,4.95
2023-05-06T11:51:34.351Z,4.40
2023-05-06T11:54:10.008Z,3.75
2023-05-06T11:56:55.336Z,4.65
2023-05-06T11:59:31.504Z,3.95
2023-05-06T12:02:00.846Z,3.62
2023-05-06T12:04:28.956Z,4.00
2023-05-06T12:06:57.186Z,3.55
2023-05-06T12:09:25.276Z,3.72
2023-05-06T12:11:53.450Z,3.62
2023-05-06T12:14:21.213Z,4.18
2023-05-06T12:19:18.450Z,3.72
2023-05-06T12:21:46.505Z,3.67
2023-05-06T12:24:14.013Z,4.30
2023-05-06T12:26:46.920Z,4.15
2023-05-06T12:29:19.561Z,3.75
2023-05-06T12:31:47.972Z,4.12
2023-05-06T12:34:17.416Z,4.00
2023-05-06T12:36:47.406Z,4.00
2023-05-06T12:39:17.964Z,4.45
2023-05-06T12:41:46.629Z,3.15
2023-05-06T12:44:37.539Z,39.33
2023-05-06T12:47:08.344Z,8.23
2023-05-06T12:49:53.924Z,9.02
2023-05-06T12:52:27.640Z,8.32
2023-05-06T12:54:54.969Z,4.45
2023-05-06T12:57:23.177Z,5.55
2023-05-06T12:59:50.953Z,3.75
2023-05-06T13:02:19.114Z,3.12
2023-05-06T13:04:47.225Z,4.60
2023-05-06T13:07:14.570Z,6.37
2023-05-06T13:09:41.901Z,3.80
2023-05-06T13:12:09.735Z,2.90
2023-05-06T13:14:39.879Z,3.87
2023-05-06T13:17:08.441Z,3.30
2023-05-06T13:19:36.412Z,5.40
2023-05-06T13:22:04.088Z,3.80
2023-05-06T13:24:32.395Z,3.72
2023-05-06T13:27:01.367Z,3.70
2023-05-06T13:29:29.833Z,3.78
2023-05-06T13:31:57.340Z,3.25
2023-05-06T13:34:25.030Z,3.70
2023-05-06T13:36:54.935Z,3.30
2023-05-06T13:39:22.842Z,4.30
2023-05-06T13:41:51.356Z,4.22
2023-05-06T13:44:19.927Z,3.75
2023-05-06T13:46:48.324Z,3.22
2023-05-06T13:49:16.253Z,5.05
2023-05-06T13:51:43.609Z,3.53
2023-05-06T13:54:10.998Z,4.10
2023-05-06T13:56:38.726Z,10.75
2023-05-06T13:59:08.304Z,3.40
2023-05-06T14:01:36.241Z,3.67
2023-05-06T14:04:04.061Z,3.78
2023-05-06T14:06:31.693Z,5.75
2023-05-06T14:08:59.304Z,5.82
2023-05-06T14:11:26.957Z,3.60
2023-05-06T14:13:56.552Z,5.25
2023-05-06T14:16:23.971Z,5.00
2023-05-06T14:18:51.873Z,6.37
2023-05-06T14:21:19.157Z,3.20
2023-05-06T14:23:46.440Z,3.25
2023-05-06T14:26:14.504Z,2.80
2023-05-06T14:28:41.881Z,4.03
2023-05-06T14:31:09.343Z,3.20
2023-05-06T14:33:38.754Z,3.42
2023-05-06T14:36:06.608Z,4.75
2023-05-06T14:38:34.095Z,4.30
2023-05-06T14:41:01.851Z,4.47
2023-05-06T14:43:29.319Z,3.08
2023-05-06T14:45:56.603Z,2.90
2023-05-06T14:48:25.559Z,2.78
2023-05-06T14:50:53.271Z,2.53
2023-05-06T14:53:20.661Z,2.92
2023-05-06T14:55:49.087Z,3.20
2023-05-06T14:58:16.551Z,3.25
2023-05-06T15:00:44.912Z,3.28
2023-05-06T15:03:12.631Z,4.53
2023-05-06T15:05:40.033Z,3.67
2023-05-06T15:08:07.525Z,3.33
2023-05-06T15:10:35.259Z,2.53
2023-05-06T15:13:03.056Z,2.92
2023-05-06T15:15:30.510Z,2.75
2023-05-06T15:17:58.297Z,3.05
2023-05-06T15:20:26.255Z,2.45
2023-05-06T15:22:53.619Z,2.97
2023-05-06T15:25:34.442Z,2.80
2023-05-06T15:28:03.861Z,2.85
2023-05-06T15:30:31.685Z,3.08
2023-05-06T15:32:59.116Z,4.78
2023-05-06T15:35:27.395Z,3.62
2023-05-06T15:37:58.982Z,3.90
2023-05-06T15:40:27.107Z,2.58
2023-05-06T15:42:54.931Z,3.00
2023-05-06T15:45:22.804Z,3.17
2023-05-06T15:47:50.300Z,3.67
2023-05-06T15:50:32.479Z,3.10
2023-05-06T15:53:01.854Z,6.00
2023-05-06T15:55:34.517Z,4.37
2023-05-06T15:58:08.660Z,3.78
2023-05-06T16:00:36.380Z,3.30
2023-05-06T16:03:04.109Z,3.42
2023-05-06T16:05:32.011Z,4.55
2023-05-06T16:07:59.381Z,4.53
2023-05-06T16:10:27.141Z,2.90
2023-05-06T16:12:54.693Z,2.50
2023-05-06T16:15:22.090Z,2.92
2023-05-06T16:17:49.770Z,2.50
2023-05-06T16:20:17.030Z,2.35
2023-05-06T16:22:50.519Z,3.33
2023-05-06T16:25:18.217Z,2.97
2023-05-06T16:27:45.580Z,3.12
2023-05-06T16:30:13.354Z,3.05
2023-05-06T16:32:41.183Z,2.65
2023-05-06T16:35:08.999Z,3.40
2023-05-06T16:37:36.836Z,6.65
2023-05-06T16:40:05.038Z,3.42
2023-05-06T16:42:32.531Z,3.57
2023-05-06T16:44:59.903Z,3.92
2023-05-06T16:47:27.704Z,3.50
2023-05-06T16:49:55.273Z,3.70
2023-05-06T16:52:22.640Z,4.03
2023-05-06T16:54:53.228Z,3.67
2023-05-06T16:57:20.667Z,4.07
2023-05-06T16:59:47.967Z,3.40
2023-05-06T17:02:15.622Z,4.00
2023-05-06T17:04:43.220Z,5.03
2023-05-06T17:07:11.497Z,7.65
2023-05-06T17:09:39.716Z,5.65
2023-05-06T17:12:08.014Z,5.78
2023-05-06T17:14:35.838Z,4.90
2023-05-06T17:17:05.498Z,6.28
2023-05-06T17:19:33.705Z,6.50
2023-05-06T17:22:00.963Z,5.30
2023-05-06T17:24:28.700Z,4.13
2023-05-06T17:26:56.032Z,6.30
2023-05-06T17:29:23.428Z,6.60
2023-05-06T17:31:51.285Z,4.40
2023-05-06T17:34:18.641Z,4.60
2023-05-06T17:36:46.002Z,4.93
2023-05-06T17:39:13.704Z,4.23
2023-05-06T17:41:41.400Z,5.20
2023-05-06T17:44:08.885Z,5.47
2023-05-06T17:46:36.942Z,4.17
2023-05-06T17:49:04.350Z,4.40
2023-05-06T17:51:31.701Z,8.00
2023-05-06T17:53:59.951Z,6.37
2023-05-06T17:56:27.424Z,4.87
2023-05-06T17:58:54.898Z,10.87
2023-05-06T18:01:22.620Z,16.53
2023-05-06T18:03:50.488Z,9.00
2023-05-06T18:06:18.809Z,7.43
2023-05-06T18:08:46.341Z,9.48
2023-05-06T18:11:14.169Z,6.27
2023-05-06T18:13:41.641Z,6.93
2023-05-06T18:16:09.839Z,7.07
2023-05-06T18:18:38.180Z,6.53
2023-05-06T18:21:05.762Z,17.67
2023-05-06T18:23:33.284Z,10.67
2023-05-06T18:26:05.046Z,9.30
2023-05-06T18:28:37.615Z,14.30
2023-05-06T18:31:06.784Z,11.17
2023-05-06T18:33:35.676Z,10.85
2023-05-06T18:36:03.436Z,8.27
2023-05-06T18:38:31.217Z,8.03
2023-05-06T18:40:58.814Z,7.00
2023-05-06T18:43:26.334Z,8.50
2023-05-06T18:45:54.247Z,9.03
2023-05-06T18:48:21.709Z,12.70
2023-05-06T18:50:50.765Z,8.87
2023-05-06T18:53:18.546Z,9.90
2023-05-06T18:55:45.921Z,8.97
2023-05-06T18:58:13.336Z,12.70
2023-05-06T19:00:41.170Z,10.70
2023-05-06T19:03:08.658Z,10.57
2023-05-06T19:05:38.157Z,12.40
2023-05-06T19:08:07.549Z,11.80
2023-05-06T19:10:34.954Z,14.73
2023-05-06T19:13:03.182Z,9.90
2023-05-06T19:15:31.444Z,13.77
2023-05-06T19:17:59.035Z,13.07
2023-05-06T19:20:26.566Z,15.30
2023-05-06T19:22:54.591Z,12.00
2023-05-06T19:25:22.132Z,15.77
2023-05-06T19:27:49.485Z,50.13
2023-05-06T19:30:17.288Z,37.93
2023-05-06T19:32:44.760Z,47.10
2023-05-06T19:35:12.708Z,45.37
2023-05-06T19:37:40.731Z,48.13
2023-05-06T19:40:09.284Z,36.87
2023-05-06T19:42:36.643Z,34.08
2023-05-06T19:45:09.418Z,32.73
2023-05-06T19:47:37.434Z,29.60
2023-05-06T19:50:06.238Z,30.92
2023-05-06T19:52:34.835Z,30.62
2023-05-06T19:55:03.402Z,37.65
2023-05-06T19:57:33.919Z,34.80
2023-05-06T20:00:06.055Z,31.20
2023-05-06T20:02:34.482Z,33.60
2023-05-06T20:05:02.045Z,27.03
2023-05-06T20:07:30.918Z,29.73
2023-05-06T20:09:58.732Z,36.40
2023-05-06T20:12:30.429Z,28.30
2023-05-06T20:14:57.876Z,26.57
2023-05-06T20:17:26.117Z,18.87
2023-05-06T20:19:53.569Z,21.17
2023-05-06T20:22:21.042Z,17.10
2023-05-06T20:24:49.106Z,18.30
2023-05-06T20:27:16.476Z,23.40
2023-05-06T20:29:43.874Z,21.77
2023-05-06T20:32:12.197Z,28.00
2023-05-06T20:34:39.475Z,28.53
2023-05-06T20:37:06.907Z,25.70
2023-05-06T20:39:34.849Z,21.77
2023-05-06T20:42:02.209Z,22.27
2023-05-06T20:44:29.674Z,24.60
2023-05-06T20:46:57.476Z,17.73
2023-05-06T20:49:24.850Z,15.97
2023-05-06T20:51:52.308Z,16.07
2023-05-06T20:54:20.059Z,12.83
2023-05-06T20:56:47.414Z,9.60
2023-05-06T20:59:14.772Z,9.17
2023-05-06T21:01:42.552Z,9.83
2023-05-06T21:04:09.938Z,10.70
2023-05-06T21:06:37.284Z,12.03
2023-05-06T21:09:04.942Z,22.90
2023-05-06T21:11:32.327Z,45.80
2023-05-06T21:13:59.686Z,28.70
2023-05-06T21:16:27.275Z,19.07
2023-05-06T21:18:54.653Z,28.20
2023-05-06T21:21:24.465Z,21.97
2023-05-06T21:23:52.176Z,19.83
2023-05-06T21:26:21.692Z,18.02
2023-05-06T21:28:52.231Z,21.33
2023-05-06T21:31:20.890Z,21.17
2023-05-06T21:33:51.422Z,16.25
2023-05-06T21:36:18.707Z,15.97
2023-05-06T21:38:48.863Z,16.23
2023-05-06T21:41:16.819Z,16.97
2023-05-06T21:43:44.228Z,19.47
2023-05-06T21:46:11.973Z,15.27
2023-05-06T21:48:39.304Z,11.53
2023-05-06T21:51:06.632Z,8.43
2023-05-06T21:53:34.323Z,6.93
2023-05-06T21:56:01.625Z,6.47
2023-05-06T21:58:28.922Z,6.93
2023-05-06T22:00:56.633Z,5.90
2023-05-06T22:03:24.514Z,21.77
2023-05-06T22:05:52.268Z,27.00
2023-05-06T22:08:19.561Z,11.17
2023-05-06T22:10:47.192Z,19.60
2023-05-06T22:13:14.584Z,16.70
2023-05-06T22:15:42.150Z,14.03
2023-05-06T22:18:10.425Z,12.60
2023-05-06T22:20:37.852Z,15.57
2023-05-06T22:23:05.541Z,14.90
2023-05-06T22:25:33.395Z,15.53
2023-05-06T22:28:02.284Z,16.40
2023-05-06T22:30:29.606Z,13.57
2023-05-06T22:32:57.352Z,9.37
2023-05-06T22:35:24.588Z,14.43
2023-05-06T22:37:52.245Z,17.53
2023-05-06T22:40:19.874Z,13.80
2023-05-06T22:42:48.406Z,11.63
2023-05-06T22:45:15.950Z,14.15
2023-05-06T22:47:43.654Z,11.97
2023-05-06T22:50:11.676Z,11.00
2023-05-06T22:52:39.146Z,8.73
2023-05-06T22:55:10.000Z,8.33
2023-05-06T22:57:37.586Z,7.93
2023-05-06T23:00:06.900Z,7.53
2023-05-06T23:02:34.844Z,6.60
2023-05-06T23:05:02.245Z,6.50
2023-05-06T23:07:29.558Z,6.20
2023-05-06T23:09:59.759Z,6.47
2023-05-06T23:12:28.253Z,6.07
2023-05-06T23:14:55.490Z,5.22
2023-05-06T23:17:23.114Z,28.57
2023-05-06T23:19:50.836Z,15.80
2023-05-06T23:22:18.200Z,10.73
2023-05-06T23:24:46.091Z,11.60
2023-05-06T23:27:13.354Z,12.17
2023-05-06T23:29:40.722Z,11.70
2023-05-06T23:32:11.204Z,12.80
2023-05-06T23:34:38.524Z,10.37
2023-05-06T23:37:05.941Z,9.53
2023-05-06T23:39:33.559Z,7.83
2023-05-06T23:42:02.007Z,15.17
2023-05-06T23:44:29.361Z,17.50
2023-05-06T23:46:56.995Z,17.93
2023-05-06T23:49:24.279Z,15.20
2023-05-06T23:51:51.615Z,13.77
2023-05-06T23:54:19.359Z,9.93
2023-05-06T23:56:46.663Z,9.10
2023-05-06T23:59:14.053Z,9.70
